createdAt,value
2022-08-07T00:02:41.500Z,20.76
2022-08-07T00:06:51.532Z,20.78
2022-08-07T00:10:57.559Z,20.72
2022-08-07T00:15:01.830Z,20.72
2022-08-07T00:19:05.662Z,20.70
2022-08-07T00:23:09.008Z,20.70
2022-08-07T00:27:13.593Z,20.68
2022-08-07T00:31:19.034Z,20.64
2022-08-07T00:35:23.032Z,20.62
2022-08-07T00:39:26.538Z,20.59
2022-08-07T00:44:01.617Z,20.57
2022-08-07T00:48:09.587Z,20.53
2022-08-07T00:52:14.509Z,20.48
2022-08-07T00:56:20.900Z,20.48
2022-08-07T01:00:26.119Z,20.50
2022-08-07T01:04:30.325Z,20.46
2022-08-07T01:08:36.072Z,20.43
2022-08-07T01:12:53.949Z,20.41
2022-08-07T01:17:04.186Z,20.36
2022-08-07T01:21:22.855Z,20.36
2022-08-07T01:25:53.830Z,20.34
2022-08-07T01:29:56.029Z,20.30
2022-08-07T01:34:00.188Z,20.27
2022-08-07T01:38:10.900Z,20.23
2022-08-07T01:42:38.748Z,20.20
2022-08-07T01:46:41.856Z,20.23
2022-08-07T01:50:50.389Z,20.19
2022-08-07T01:54:58.994Z,20.18
2022-08-07T01:59:09.167Z,20.16
2022-08-07T02:03:31.986Z,20.12
2022-08-07T02:07:51.789Z,20.05
2022-08-07T02:12:17.697Z,20.05
2022-08-07T02:16:28.726Z,20.07
2022-08-07T02:20:38.158Z,20.07
2022-08-07T02:24:46.605Z,20.02
2022-08-07T02:28:54.408Z,20.01
2022-08-07T02:33:09.282Z,19.94
2022-08-07T02:37:16.677Z,19.97
2022-08-07T02:41:21.690Z,19.99
2022-08-07T02:46:00.180Z,19.98
2022-08-07T02:49:58.806Z,19.98
2022-08-07T02:54:10.617Z,19.91
2022-08-07T02:58:21.999Z,19.90
2022-08-07T03:02:33.840Z,19.89
2022-08-07T03:06:38.969Z,19.90
2022-08-07T03:10:46.730Z,19.88
2022-08-07T03:14:56.344Z,19.88
2022-08-07T03:19:02.184Z,19.87
2022-08-07T03:23:18.911Z,19.85
2022-08-07T03:27:30.120Z,19.80
2022-08-07T03:31:43.443Z,19.79
2022-08-07T03:35:52.553Z,19.81
2022-08-07T03:40:15.309Z,19.82
2022-08-07T03:44:31.911Z,19.79
2022-08-07T03:48:45.557Z,19.80
2022-08-07T03:53:07.508Z,19.81
2022-08-07T03:58:33.840Z,19.79
2022-08-07T04:01:45.221Z,19.77
2022-08-07T04:05:50.689Z,19.78
2022-08-07T04:09:59.687Z,19.79
2022-08-07T04:14:10.159Z,19.78
2022-08-07T04:18:59.573Z,19.77
2022-08-07T04:23:01.301Z,19.77
2022-08-07T04:27:20.757Z,19.76
2022-08-07T04:32:02.160Z,19.75
2022-08-07T04:35:56.148Z,19.77
2022-08-07T04:40:05.211Z,19.78
2022-08-07T04:44:18.243Z,19.81
2022-08-07T04:48:31.535Z,19.85
2022-08-07T04:52:51.113Z,19.86
2022-08-07T04:58:16.823Z,19.87
2022-08-07T05:01:41.648Z,19.86
2022-08-07T05:05:57.145Z,19.86
2022-08-07T05:10:07.813Z,19.81
2022-08-07T05:14:52.898Z,19.81
2022-08-07T05:18:54.060Z,19.83
2022-08-07T05:23:02.772Z,19.81
2022-08-07T05:27:14.461Z,19.82
2022-08-07T05:31:38.513Z,19.85
2022-08-07T05:35:50.737Z,19.89
2022-08-07T05:40:14.188Z,19.91
2022-08-07T05:44:29.342Z,19.92
2022-08-07T05:48:36.600Z,19.93
2022-08-07T05:53:01.565Z,19.94
2022-08-07T05:57:07.314Z,19.98
2022-08-07T06:01:13.320Z,19.98
2022-08-07T06:05:28.137Z,19.99
2022-08-07T06:10:03.774Z,20.04
2022-08-07T06:14:12.924Z,20.08
2022-08-07T06:18:28.033Z,20.15
2022-08-07T06:22:39.044Z,20.16
2022-08-07T06:27:07.948Z,20.23
2022-08-07T06:31:11.918Z,20.25
2022-08-07T06:35:18.090Z,20.23
2022-08-07T06:40:16.246Z,20.25
2022-08-07T06:43:59.417Z,20.31
2022-08-07T06:48:09.405Z,20.42
2022-08-07T06:52:31.727Z,20.45
2022-08-07T06:56:50.715Z,20.53
2022-08-07T07:01:01.285Z,20.60
2022-08-07T07:05:12.602Z,20.74
2022-08-07T07:09:24.260Z,20.95
2022-08-07T07:13:43.614Z,21.14
2022-08-07T07:18:11.203Z,21.33
2022-08-07T07:22:36.117Z,21.72
2022-08-07T07:26:49.672Z,21.87
2022-08-07T07:31:01.500Z,21.99
2022-08-07T07:35:11.315Z,22.11
2022-08-07T07:39:16.494Z,22.13
2022-08-07T07:43:27.700Z,22.10
2022-08-07T07:47:51.961Z,22.11
2022-08-07T07:51:59.884Z,22.16
2022-08-07T07:56:04.250Z,22.18
2022-08-07T08:00:09.523Z,22.22
2022-08-07T08:04:18.478Z,22.23
2022-08-07T08:08:35.037Z,22.26
2022-08-07T08:12:52.279Z,22.20
2022-08-07T08:17:56.389Z,22.15
2022-08-07T08:22:02.587Z,22.22
2022-08-07T08:26:23.395Z,22.29
2022-08-07T08:30:30.219Z,22.43
2022-08-07T08:34:36.762Z,22.44
2022-08-07T08:38:43.160Z,22.50
2022-08-07T08:42:55.823Z,22.59
2022-08-07T08:47:09.815Z,22.65
2022-08-07T08:51:49.552Z,22.70
2022-08-07T08:55:59.243Z,22.81
2022-08-07T09:00:09.054Z,22.86
2022-08-07T09:04:25.953Z,22.89
2022-08-07T09:08:42.144Z,23.08
2022-08-07T09:12:58.303Z,23.14
2022-08-07T09:17:19.121Z,23.20
2022-08-07T09:22:09.747Z,23.22
2022-08-07T09:26:12.636Z,23.29
2022-08-07T09:30:25.447Z,23.35
2022-08-07T09:34:53.909Z,23.38
2022-08-07T09:39:18.260Z,23.45
2022-08-07T09:44:06.247Z,23.67
2022-08-07T09:48:25.151Z,23.82
2022-08-07T09:52:41.903Z,23.98
2022-08-07T09:57:27.992Z,24.12
2022-08-07T10:01:51.692Z,24.17
2022-08-07T10:06:24.526Z,24.27
2022-08-07T10:11:16.402Z,24.38
2022-08-07T10:15:44.528Z,24.54
2022-08-07T10:20:02.061Z,24.67
2022-08-07T10:24:38.142Z,24.81
2022-08-07T10:29:00.019Z,24.98
2022-08-07T10:34:04.999Z,25.13
2022-08-07T10:38:21.245Z,25.40
2022-08-07T10:42:36.383Z,25.49
2022-08-07T10:46:48.883Z,25.52
2022-08-07T10:50:57.302Z,25.41
2022-08-07T10:55:26.619Z,25.41
2022-08-07T10:59:52.972Z,25.48
2022-08-07T11:04:17.030Z,25.57
2022-08-07T11:08:40.830Z,25.74
2022-08-07T11:12:49.725Z,25.80
2022-08-07T11:17:12.214Z,25.79
2022-08-07T11:21:32.092Z,25.88
2022-08-07T11:25:48.198Z,26.04
2022-08-07T11:30:18.709Z,26.10
2022-08-07T11:34:32.435Z,26.14
2022-08-07T11:38:50.629Z,26.20
2022-08-07T11:43:00.874Z,26.28
2022-08-07T11:47:19.032Z,26.28
2022-08-07T11:51:44.692Z,26.38
2022-08-07T11:56:25.335Z,26.41
2022-08-07T12:00:39.301Z,26.41
2022-08-07T12:05:00.981Z,26.40
2022-08-07T12:09:16.476Z,26.38
2022-08-07T12:13:37.102Z,26.29
2022-08-07T12:17:59.432Z,26.23
2022-08-07T12:22:37.310Z,26.18
2022-08-07T12:26:46.238Z,26.16
2022-08-07T12:30:57.305Z,26.17
2022-08-07T12:35:05.599Z,26.20
2022-08-07T12:39:44.830Z,26.18
2022-08-07T12:44:02.703Z,26.22
2022-08-07T12:48:13.187Z,26.30
2022-08-07T12:52:46.106Z,26.32
2022-08-07T12:56:54.882Z,26.28
2022-08-07T13:01:08.057Z,26.29
2022-08-07T13:06:03.742Z,26.33
2022-08-07T13:10:37.627Z,26.42
2022-08-07T13:14:51.152Z,26.52
2022-08-07T13:19:11.473Z,26.52
2022-08-07T13:24:00.788Z,26.60
2022-08-07T13:28:11.704Z,26.66
2022-08-07T13:32:32.691Z,26.76
2022-08-07T13:36:46.315Z,26.83
2022-08-07T13:41:02.445Z,26.96
2022-08-07T13:45:20.851Z,27.06
2022-08-07T13:50:34.507Z,27.08
2022-08-07T13:54:03.626Z,27.13
2022-08-07T13:58:31.430Z,27.17
2022-08-07T14:02:49.154Z,27.23
2022-08-07T14:06:55.797Z,27.27
2022-08-07T14:11:15.470Z,27.26
2022-08-07T14:15:31.752Z,27.22
2022-08-07T14:20:39.814Z,27.20
2022-08-07T14:24:27.655Z,27.14
2022-08-07T14:28:57.479Z,27.12
2022-08-07T14:33:04.663Z,27.15
2022-08-07T14:37:16.667Z,27.21
2022-08-07T14:41:34.108Z,27.25
2022-08-07T14:50:20.634Z,27.33
2022-08-07T14:54:31.324Z,27.34
2022-08-07T14:58:42.631Z,27.37
2022-08-07T15:02:47.494Z,27.30
2022-08-07T15:07:03.227Z,27.29
2022-08-07T15:11:53.317Z,27.27
2022-08-07T15:16:01.064Z,27.23
2022-08-07T15:25:13.686Z,27.09
2022-08-07T15:38:17.443Z,26.88
2022-08-07T15:42:51.891Z,26.81
2022-08-07T15:47:03.565Z,26.67
2022-08-07T15:51:16.941Z,26.56
2022-08-07T15:55:23.220Z,26.53
2022-08-07T15:59:47.874Z,26.48
2022-08-07T16:03:57.312Z,26.47
2022-08-07T16:08:30.207Z,26.45
2022-08-07T16:12:39.110Z,26.40
2022-08-07T16:17:15.416Z,26.35
2022-08-07T16:22:01.322Z,26.26
2022-08-07T16:25:56.704Z,26.20
2022-08-07T16:30:30.995Z,26.13
2022-08-07T16:34:48.193Z,26.07
2022-08-07T16:39:13.273Z,25.98
2022-08-07T16:44:03.929Z,25.88
2022-08-07T16:48:58.430Z,25.87
2022-08-07T16:54:02.532Z,25.86
2022-08-07T16:58:03.691Z,25.81
2022-08-07T17:02:52.476Z,25.76
2022-08-07T17:07:02.894Z,25.76
2022-08-07T17:11:14.273Z,25.72
2022-08-07T17:15:21.962Z,25.68
2022-08-07T17:20:01.548Z,25.64
2022-08-07T17:24:23.622Z,25.62
2022-08-07T17:28:38.244Z,25.55
2022-08-07T17:32:53.725Z,25.54
2022-08-07T17:37:09.818Z,25.51
2022-08-07T17:42:04.580Z,25.45
2022-08-07T17:45:55.575Z,25.38
2022-08-07T17:50:01.436Z,25.28
2022-08-07T17:54:14.958Z,25.19
2022-08-07T17:58:46.342Z,25.00
2022-08-07T18:02:56.730Z,24.87
2022-08-07T18:07:20.095Z,24.67
2022-08-07T18:12:07.938Z,24.56
2022-08-07T18:16:04.708Z,24.48
2022-08-07T18:21:03.433Z,24.34
2022-08-07T18:24:43.259Z,24.18
2022-08-07T18:29:03.925Z,24.03
2022-08-07T18:33:32.613Z,23.85
2022-08-07T18:38:55.183Z,23.72
2022-08-07T18:42:28.806Z,23.65
2022-08-07T18:46:43.110Z,23.57
2022-08-07T18:51:11.637Z,23.45
2022-08-07T18:55:41.845Z,23.41
2022-08-07T19:00:32.877Z,23.40
2022-08-07T19:04:57.668Z,23.39
2022-08-07T19:09:55.388Z,23.33
2022-08-07T19:13:56.467Z,23.23
2022-08-07T19:18:12.991Z,23.16
2022-08-07T19:22:31.334Z,23.11
2022-08-07T19:27:09.121Z,23.04
2022-08-07T19:31:43.626Z,23.00
2022-08-07T19:35:38.499Z,22.93
2022-08-07T19:39:57.590Z,22.89
2022-08-07T19:44:21.275Z,22.84
2022-08-07T19:48:42.130Z,22.73
2022-08-07T19:52:58.353Z,22.60
2022-08-07T19:58:02.300Z,22.47
2022-08-07T20:01:56.246Z,22.39
2022-08-07T20:06:00.558Z,22.29
2022-08-07T20:10:35.702Z,22.26
2022-08-07T20:14:36.631Z,22.25
2022-08-07T20:18:58.771Z,22.23
2022-08-07T20:23:23.172Z,22.24
2022-08-07T20:27:46.247Z,22.21
2022-08-07T20:31:50.849Z,22.17
2022-08-07T20:36:03.408Z,22.17
2022-08-07T20:40:32.165Z,22.15
2022-08-07T20:44:38.699Z,22.12
2022-08-07T20:49:54.636Z,22.05
2022-08-07T20:53:13.491Z,22.05
2022-08-07T20:57:22.119Z,22.07
2022-08-07T21:01:29.710Z,22.07
2022-08-07T21:05:56.354Z,22.05
2022-08-07T21:10:03.235Z,22.05
2022-08-07T21:14:31.640Z,22.03
2022-08-07T21:18:41.011Z,22.02
2022-08-07T21:22:53.483Z,22.00
2022-08-07T21:27:02.044Z,21.98
2022-08-07T21:31:16.247Z,21.95
2022-08-07T21:36:00.207Z,21.91
2022-08-07T21:40:03.682Z,21.86
2022-08-07T21:44:28.436Z,21.81
2022-08-07T21:48:43.859Z,21.77
2022-08-07T21:53:07.776Z,21.71
2022-08-07T21:57:39.652Z,21.65
2022-08-07T22:02:11.024Z,21.62
2022-08-07T22:06:31.005Z,21.57
2022-08-07T22:10:35.744Z,21.54
2022-08-07T22:15:00.115Z,21.51
2022-08-07T22:19:09.564Z,21.45
2022-08-07T22:23:23.615Z,21.40
2022-08-07T22:27:51.220Z,21.37
2022-08-07T22:32:06.397Z,21.32
2022-08-07T22:36:18.592Z,21.30
2022-08-07T22:40:30.785Z,21.32
2022-08-07T22:44:36.884Z,21.35
2022-08-07T22:49:07.761Z,21.38
2022-08-07T22:54:08.089Z,21.40
2022-08-07T22:58:28.106Z,21.42
2022-08-07T23:02:38.575Z,21.41
2022-08-07T23:06:54.921Z,21.40
2022-08-07T23:11:17.167Z,21.40
2022-08-07T23:16:06.726Z,21.38
2022-08-07T23:20:15.051Z,21.38
2022-08-07T23:24:30.027Z,21.37
2022-08-07T23:28:54.462Z,21.38
2022-08-07T23:34:20.671Z,21.35
2022-08-07T23:38:01.685Z,21.35
2022-08-07T23:42:21.877Z,21.38
2022-08-07T23:46:57.661Z,21.35
2022-08-07T23:52:58.300Z,21.35
2022-08-07T23:55:53.168Z,21.36
